createdAt,value
2019-03-30T00:00:24.418Z,13.77
2019-03-30T00:00:50.532Z,13.74
2019-03-30T00:01:16.638Z,13.86
2019-03-30T00:01:42.756Z,13.9
2019-03-30T00:02:08.892Z,13.74
2019-03-30T00:02:35.676Z,13.71
2019-03-30T00:03:01.911Z,13.59
2019-03-30T00:03:28.019Z,13.63
2019-03-30T00:03:54.163Z,13.72
2019-03-30T00:04:20.297Z,13.63
2019-03-30T00:04:46.407Z,13.67
2019-03-30T00:05:12.544Z,13.67
2019-03-30T00:05:38.651Z,13.57
2019-03-30T00:06:04.790Z,13.62
2019-03-30T00:06:30.899Z,13.6
2019-03-30T00:06:57.006Z,13.57
2019-03-30T00:07:23.118Z,13.54
2019-03-30T00:07:49.217Z,13.62
2019-03-30T00:08:15.359Z,13.63
2019-03-30T00:08:41.465Z,13.63
2019-03-30T00:09:07.608Z,13.62
2019-03-30T00:09:33.721Z,13.62
2019-03-30T00:09:59.863Z,13.62
2019-03-30T00:10:25.991Z,13.65
2019-03-30T00:10:52.406Z,13.67
2019-03-30T00:11:18.544Z,13.7
2019-03-30T00:11:44.652Z,13.63
2019-03-30T00:12:11.753Z,13.5
2019-03-30T00:12:38.810Z,13.42
2019-03-30T00:13:04.921Z,13.5
2019-03-30T00:13:31.051Z,13.53
2019-03-30T00:13:57.156Z,13.54
2019-03-30T00:14:23.288Z,13.46
2019-03-30T00:14:49.435Z,13.44
2019-03-30T00:15:15.544Z,13.5
2019-03-30T00:15:41.648Z,13.38
2019-03-30T00:16:08.051Z,13.37
2019-03-30T00:16:34.185Z,13.25
2019-03-30T00:17:00.293Z,13.3
2019-03-30T00:17:26.400Z,13.27
2019-03-30T00:17:52.508Z,13.39
2019-03-30T00:18:18.652Z,13.35
2019-03-30T00:18:45.752Z,13.39
2019-03-30T00:19:11.861Z,13.41
2019-03-30T00:19:40.537Z,13.47
2019-03-30T00:20:06.645Z,13.42
2019-03-30T00:20:32.752Z,13.38
2019-03-30T00:20:58.894Z,13.35
2019-03-30T00:21:25.030Z,13.38
2019-03-30T00:21:51.138Z,13.42
2019-03-30T00:22:17.247Z,13.46
2019-03-30T00:22:43.367Z,13.41
2019-03-30T00:23:09.466Z,13.42
2019-03-30T00:23:35.575Z,13.38
2019-03-30T00:24:01.705Z,13.41
2019-03-30T00:24:27.845Z,13.39
2019-03-30T00:24:53.960Z,13.37
2019-03-30T00:25:20.101Z,13.27
2019-03-30T00:25:46.203Z,13.3
2019-03-30T00:26:12.319Z,13.33
2019-03-30T00:26:38.421Z,13.25
2019-03-30T00:27:04.556Z,13.23
2019-03-30T00:27:30.666Z,13.19
2019-03-30T00:27:56.773Z,13.28
2019-03-30T00:28:22.884Z,13.28
2019-03-30T00:28:48.995Z,13.25
2019-03-30T00:29:15.100Z,13.3
2019-03-30T00:29:41.205Z,13.27
2019-03-30T00:30:07.316Z,13.22
2019-03-30T00:30:34.409Z,13.25
2019-03-30T00:31:00.524Z,13.28
2019-03-30T00:31:26.628Z,13.23
2019-03-30T00:31:52.763Z,13.13
2019-03-30T00:32:18.882Z,13.18
2019-03-30T00:32:45.014Z,13.04
2019-03-30T00:33:11.148Z,13.09
2019-03-30T00:33:37.257Z,13.04
2019-03-30T00:34:03.368Z,12.94
2019-03-30T00:34:29.479Z,12.93
2019-03-30T00:34:55.624Z,12.97
2019-03-30T00:35:21.737Z,12.94
2019-03-30T00:35:47.871Z,12.93
2019-03-30T00:36:13.982Z,12.79
2019-03-30T00:36:40.130Z,12.82
2019-03-30T00:37:06.238Z,12.91
2019-03-30T00:37:32.379Z,12.94
2019-03-30T00:37:58.483Z,13.04
2019-03-30T00:38:24.594Z,13.04
2019-03-30T00:38:50.709Z,13.11
2019-03-30T00:39:16.805Z,13.05
2019-03-30T00:39:42.917Z,13.15
2019-03-30T00:40:09.021Z,13.16
2019-03-30T00:40:35.156Z,13.13
2019-03-30T00:41:01.270Z,13.2
2019-03-30T00:41:27.374Z,13.28
2019-03-30T00:41:53.477Z,13.28
2019-03-30T00:42:19.584Z,13.27
2019-03-30T00:42:45.698Z,13.31
2019-03-30T00:43:11.831Z,13.27
2019-03-30T00:43:37.941Z,13.31
2019-03-30T00:44:04.048Z,13.27
2019-03-30T00:44:30.154Z,13.3
2019-03-30T00:44:56.263Z,13.31
2019-03-30T00:45:22.370Z,13.38
2019-03-30T00:45:48.478Z,13.3
2019-03-30T00:46:14.618Z,13.27
2019-03-30T00:46:40.733Z,13.3
2019-03-30T00:47:06.864Z,13.28
2019-03-30T00:47:32.973Z,13.25
2019-03-30T00:47:59.076Z,13.28
2019-03-30T00:48:25.194Z,13.13
2019-03-30T00:48:51.301Z,13.19
2019-03-30T00:49:17.408Z,13.09
2019-03-30T00:49:49.221Z,13.18
2019-03-30T00:50:11.606Z,13.12
2019-03-30T00:50:37.739Z,13.19
2019-03-30T00:51:03.853Z,13.16
2019-03-30T00:51:29.965Z,13.08
2019-03-30T00:51:56.078Z,13.08
2019-03-30T00:52:22.214Z,13.03
2019-03-30T00:52:48.323Z,12.93
2019-03-30T00:53:14.457Z,13.01
2019-03-30T00:53:40.572Z,13.09
2019-03-30T00:54:06.677Z,13.12
2019-03-30T00:54:32.813Z,13.09
2019-03-30T00:54:58.921Z,13.09
2019-03-30T00:55:25.032Z,13.11
2019-03-30T00:55:51.152Z,13.05
2019-03-30T00:56:17.257Z,13.12
2019-03-30T00:56:43.365Z,13.15
2019-03-30T00:57:09.474Z,13.18
2019-03-30T00:57:35.634Z,13.22
2019-03-30T00:58:01.718Z,13.16
2019-03-30T00:58:28.823Z,13.22
2019-03-30T00:58:54.958Z,13.16
2019-03-30T00:59:21.069Z,13.09
2019-03-30T00:59:47.273Z,13.13
2019-03-30T01:00:13.343Z,13.11
2019-03-30T01:00:39.474Z,13.12
2019-03-30T01:01:05.582Z,13.12
2019-03-30T01:01:31.691Z,13.15
2019-03-30T01:01:57.798Z,13.12
2019-03-30T01:02:23.942Z,13.09
2019-03-30T01:02:50.058Z,13.01
2019-03-30T01:03:16.166Z,13.01
2019-03-30T01:03:42.302Z,13.09
2019-03-30T01:04:08.440Z,12.93
2019-03-30T01:04:34.551Z,12.97
2019-03-30T01:05:00.691Z,13
2019-03-30T01:05:26.799Z,12.95
2019-03-30T01:05:52.937Z,13.09
2019-03-30T01:06:19.251Z,13.05
2019-03-30T01:06:45.360Z,13.11
2019-03-30T01:07:11.471Z,13.08
2019-03-30T01:07:37.612Z,13.16
2019-03-30T01:08:03.724Z,13.19
2019-03-30T01:08:29.844Z,13.18
2019-03-30T01:08:55.967Z,13.15
2019-03-30T01:09:22.107Z,13.2
2019-03-30T01:09:48.215Z,13.12
2019-03-30T01:10:14.349Z,13.19
2019-03-30T01:10:40.485Z,13.22
2019-03-30T01:11:06.591Z,13.2
2019-03-30T01:11:32.704Z,13.12
2019-03-30T01:11:58.813Z,13.13
2019-03-30T01:12:24.906Z,13.18
2019-03-30T01:12:51.014Z,13.12
2019-03-30T01:13:17.154Z,13.16
2019-03-30T01:13:43.252Z,13.13
2019-03-30T01:14:09.391Z,13.12
2019-03-30T01:14:35.491Z,13.08
2019-03-30T01:15:01.599Z,13.16
2019-03-30T01:15:27.735Z,13.18
2019-03-30T01:15:53.845Z,13.19
2019-03-30T01:16:19.946Z,13.22
2019-03-30T01:16:46.057Z,13.11
2019-03-30T01:17:12.167Z,13.15
2019-03-30T01:17:38.335Z,13.11
2019-03-30T01:18:04.441Z,13.18
2019-03-30T01:18:30.549Z,13.16
2019-03-30T01:18:56.681Z,13.16
2019-03-30T01:19:22.790Z,13.09
2019-03-30T01:20:01.811Z,13.16
2019-03-30T01:20:17.015Z,13.15
2019-03-30T01:20:43.123Z,13.2
2019-03-30T01:21:09.232Z,13.16
2019-03-30T01:21:35.339Z,13.15
2019-03-30T01:22:01.471Z,13.13
2019-03-30T01:22:27.579Z,13.12
2019-03-30T01:22:53.687Z,13.13
2019-03-30T01:23:19.801Z,13.11
2019-03-30T01:23:45.907Z,13.11
2019-03-30T01:24:12.023Z,13.04
2019-03-30T01:24:38.125Z,13.09
2019-03-30T01:25:04.241Z,13.04
2019-03-30T01:25:30.368Z,13.01
2019-03-30T01:25:56.484Z,13.04
2019-03-30T01:26:22.628Z,13.03
2019-03-30T01:26:48.769Z,13.08
2019-03-30T01:27:14.881Z,13.09
2019-03-30T01:27:40.988Z,13.01
2019-03-30T01:28:07.097Z,13.08
2019-03-30T01:28:33.202Z,13.11
2019-03-30T01:28:59.305Z,12.98
2019-03-30T01:29:25.421Z,13
2019-03-30T01:29:51.556Z,12.93
2019-03-30T01:30:23.161Z,13
2019-03-30T01:30:43.836Z,12.97
2019-03-30T01:31:09.975Z,12.97
2019-03-30T01:31:36.079Z,13
2019-03-30T01:32:02.181Z,12.97
2019-03-30T01:32:28.319Z,12.94
2019-03-30T01:32:55.447Z,13
2019-03-30T01:33:21.550Z,13.03
2019-03-30T01:33:47.657Z,13.08
2019-03-30T01:34:13.788Z,13.03
2019-03-30T01:34:39.900Z,13.01
2019-03-30T01:35:06.039Z,13.04
2019-03-30T01:35:32.617Z,13
2019-03-30T01:35:58.727Z,12.91
2019-03-30T01:36:24.838Z,12.9
2019-03-30T01:36:50.939Z,12.87
2019-03-30T01:37:17.046Z,12.86
2019-03-30T01:37:43.159Z,12.94
2019-03-30T01:38:09.263Z,12.98
2019-03-30T01:38:35.403Z,12.86
2019-03-30T01:39:01.513Z,12.95
2019-03-30T01:39:27.623Z,12.9
2019-03-30T01:39:53.732Z,12.95
2019-03-30T01:40:19.842Z,12.93
2019-03-30T01:40:45.945Z,12.85
2019-03-30T01:41:12.085Z,12.83
2019-03-30T01:41:38.283Z,12.83
2019-03-30T01:42:04.386Z,12.8
2019-03-30T01:42:30.496Z,12.85
2019-03-30T01:42:56.606Z,12.85
2019-03-30T01:43:22.745Z,12.8
2019-03-30T01:43:48.855Z,12.7
2019-03-30T01:44:14.960Z,12.68
2019-03-30T01:44:41.070Z,12.64
2019-03-30T01:45:07.176Z,12.61
2019-03-30T01:45:33.292Z,12.72
2019-03-30T01:45:59.461Z,12.76
2019-03-30T01:46:25.567Z,12.65
2019-03-30T01:46:51.679Z,12.62
2019-03-30T01:47:17.810Z,12.53
2019-03-30T01:47:43.990Z,12.46
2019-03-30T01:48:10.044Z,12.49
2019-03-30T01:48:36.152Z,12.53
2019-03-30T01:49:02.263Z,12.62
2019-03-30T01:49:28.396Z,12.65
2019-03-30T01:49:54.502Z,12.61
2019-03-30T01:50:22.613Z,12.65
2019-03-30T01:50:48.725Z,12.65
2019-03-30T01:51:14.851Z,12.67
2019-03-30T01:51:40.956Z,12.64
2019-03-30T01:52:07.071Z,12.58
2019-03-30T01:52:33.187Z,12.72
2019-03-30T01:52:59.289Z,12.6
2019-03-30T01:53:25.405Z,12.62
2019-03-30T01:53:51.509Z,12.67
2019-03-30T01:54:17.619Z,12.65
2019-03-30T01:54:43.730Z,12.68
2019-03-30T01:55:09.837Z,12.65
2019-03-30T01:55:35.947Z,12.72
2019-03-30T01:56:02.065Z,12.62
2019-03-30T01:56:28.195Z,12.58
2019-03-30T01:56:54.296Z,12.6
2019-03-30T01:57:20.446Z,12.57
2019-03-30T01:57:46.581Z,12.55
2019-03-30T01:58:12.690Z,12.49
2019-03-30T01:58:38.831Z,12.47
2019-03-30T01:59:04.934Z,12.53
2019-03-30T01:59:31.045Z,12.64
2019-03-30T01:59:57.158Z,12.57
2019-03-30T02:00:23.261Z,12.64
2019-03-30T02:00:49.373Z,12.62
2019-03-30T02:01:15.505Z,12.64
2019-03-30T02:01:41.615Z,12.67
2019-03-30T02:02:07.752Z,12.67
2019-03-30T02:02:33.869Z,12.65
2019-03-30T02:02:59.980Z,12.62
2019-03-30T02:03:26.085Z,12.61
2019-03-30T02:03:52.195Z,12.49
2019-03-30T02:04:18.334Z,12.55
2019-03-30T02:04:44.449Z,12.58
2019-03-30T02:05:10.757Z,12.57
2019-03-30T02:05:36.892Z,12.5
2019-03-30T02:06:02.999Z,12.57
2019-03-30T02:06:29.112Z,12.53
2019-03-30T02:06:55.213Z,12.54
2019-03-30T02:07:21.327Z,12.5
2019-03-30T02:07:47.433Z,12.55
2019-03-30T02:08:13.545Z,12.53
2019-03-30T02:08:39.675Z,12.55
2019-03-30T02:09:05.786Z,12.53
2019-03-30T02:09:31.894Z,12.53
2019-03-30T02:09:58.038Z,12.53
2019-03-30T02:10:24.144Z,12.46
2019-03-30T02:10:50.258Z,12.47
2019-03-30T02:11:16.393Z,12.47
2019-03-30T02:11:42.498Z,12.43
2019-03-30T02:12:08.603Z,12.46
2019-03-30T02:12:34.724Z,12.49
2019-03-30T02:13:00.831Z,12.47
2019-03-30T02:13:26.938Z,12.53
2019-03-30T02:13:53.106Z,12.58
2019-03-30T02:14:19.235Z,12.54
2019-03-30T02:14:45.394Z,12.54
2019-03-30T02:15:11.447Z,12.45
2019-03-30T02:15:37.593Z,12.49
2019-03-30T02:16:03.711Z,12.45
2019-03-30T02:16:29.838Z,12.37
2019-03-30T02:16:55.949Z,12.31
2019-03-30T02:17:23.079Z,12.35
2019-03-30T02:17:49.176Z,12.31
2019-03-30T02:18:15.286Z,12.24
2019-03-30T02:18:41.401Z,12.36
2019-03-30T02:19:07.506Z,12.27
2019-03-30T02:19:33.612Z,12.13
2019-03-30T02:19:59.720Z,12.28
2019-03-30T02:20:30.729Z,12.24
2019-03-30T02:20:53.915Z,12.24
2019-03-30T02:21:20.024Z,12.07
2019-03-30T02:21:46.151Z,12.09
2019-03-30T02:22:12.261Z,12.1
2019-03-30T02:22:38.365Z,12.07
2019-03-30T02:23:04.471Z,11.95
2019-03-30T02:23:30.589Z,12.04
2019-03-30T02:23:56.691Z,12.04
2019-03-30T02:24:22.802Z,12.1
2019-03-30T02:24:48.913Z,12.06
2019-03-30T02:25:15.051Z,12.1
2019-03-30T02:25:41.188Z,11.97
2019-03-30T02:26:07.327Z,12.04
2019-03-30T02:26:33.459Z,12.06
2019-03-30T02:26:59.569Z,12.09
2019-03-30T02:27:25.709Z,12
2019-03-30T02:27:51.821Z,12
2019-03-30T02:28:17.964Z,11.91
2019-03-30T02:28:44.059Z,11.88
2019-03-30T02:29:10.173Z,11.88
2019-03-30T02:29:36.274Z,11.88
2019-03-30T02:30:02.381Z,11.87
2019-03-30T02:30:28.580Z,11.9
2019-03-30T02:30:54.690Z,11.84
2019-03-30T02:31:20.854Z,11.78
2019-03-30T02:31:46.965Z,11.81
2019-03-30T02:32:13.070Z,11.8
2019-03-30T02:32:39.172Z,11.87
2019-03-30T02:33:05.457Z,11.84
2019-03-30T02:33:31.517Z,11.75
2019-03-30T02:33:57.621Z,11.8
2019-03-30T02:34:23.757Z,11.81
2019-03-30T02:34:49.891Z,11.77
2019-03-30T02:35:16.194Z,11.75
2019-03-30T02:35:42.378Z,11.8
2019-03-30T02:36:08.567Z,11.78
2019-03-30T02:36:34.709Z,11.7
2019-03-30T02:37:00.837Z,11.83
2019-03-30T02:37:27.019Z,11.8
2019-03-30T02:37:53.134Z,11.8
2019-03-30T02:38:19.266Z,11.75
2019-03-30T02:38:45.368Z,11.75
2019-03-30T02:39:11.543Z,11.81
2019-03-30T02:39:37.680Z,11.81
2019-03-30T02:40:03.814Z,11.8
2019-03-30T02:40:29.935Z,11.77
2019-03-30T02:40:56.038Z,11.77
2019-03-30T02:41:22.151Z,11.69
2019-03-30T02:41:48.361Z,11.69
2019-03-30T02:42:14.459Z,11.68
2019-03-30T02:42:40.622Z,11.7
2019-03-30T02:43:06.721Z,11.62
2019-03-30T02:43:32.843Z,11.7
2019-03-30T02:43:58.981Z,11.68
2019-03-30T02:44:25.118Z,11.7
2019-03-30T02:44:51.222Z,11.63
2019-03-30T02:45:17.360Z,11.55
2019-03-30T02:45:43.529Z,11.54
2019-03-30T02:46:09.694Z,11.62
2019-03-30T02:46:35.830Z,11.59
2019-03-30T02:47:02.070Z,11.6
2019-03-30T02:47:28.205Z,11.51
2019-03-30T02:47:54.314Z,11.57
2019-03-30T02:48:20.478Z,11.54
2019-03-30T02:48:46.652Z,11.48
2019-03-30T02:49:12.766Z,11.5
2019-03-30T02:49:38.873Z,11.45
2019-03-30T02:50:05.067Z,11.43
2019-03-30T02:50:47.642Z,11.45
2019-03-30T02:51:01.273Z,11.37
2019-03-30T02:51:27.398Z,11.4
2019-03-30T02:51:53.509Z,11.36
2019-03-30T02:52:19.649Z,11.4
2019-03-30T02:52:45.790Z,11.4
2019-03-30T02:53:11.893Z,11.45
2019-03-30T02:53:38.052Z,11.43
2019-03-30T02:54:04.187Z,11.45
2019-03-30T02:54:30.325Z,11.44
2019-03-30T02:54:56.629Z,11.43
2019-03-30T02:55:23.374Z,11.33
2019-03-30T02:55:49.544Z,11.36
2019-03-30T02:56:15.643Z,11.35
2019-03-30T02:56:41.756Z,11.35
2019-03-30T02:57:07.922Z,11.29
2019-03-30T02:57:34.033Z,11.27
2019-03-30T02:58:00.163Z,11.23
2019-03-30T02:58:26.303Z,11.23
2019-03-30T02:58:52.482Z,11.07
2019-03-30T02:59:18.644Z,11
2019-03-30T02:59:44.808Z,10.96
2019-03-30T03:00:11.091Z,11.08
2019-03-30T03:00:37.132Z,11.05
2019-03-30T03:01:03.275Z,10.97
2019-03-30T03:01:29.416Z,10.87
2019-03-30T03:01:55.583Z,10.92
2019-03-30T03:02:21.690Z,10.86
2019-03-30T03:02:47.828Z,11.02
2019-03-30T03:03:13.966Z,11
2019-03-30T03:03:40.098Z,11.04
2019-03-30T03:04:06.236Z,10.96
2019-03-30T03:04:32.346Z,11.04
2019-03-30T03:04:58.477Z,11.02
2019-03-30T03:05:24.612Z,10.97
2019-03-30T03:05:50.778Z,10.97
2019-03-30T03:06:16.921Z,10.96
2019-03-30T03:06:43.029Z,10.94
2019-03-30T03:07:09.142Z,10.97
2019-03-30T03:07:35.305Z,10.94
2019-03-30T03:08:01.443Z,11.02
2019-03-30T03:08:27.584Z,10.97
2019-03-30T03:08:53.746Z,10.93
2019-03-30T03:09:19.866Z,11.02
2019-03-30T03:09:46.023Z,11
2019-03-30T03:10:12.163Z,11
2019-03-30T03:10:38.271Z,10.99
2019-03-30T03:11:04.411Z,11.12
2019-03-30T03:11:30.540Z,10.97
2019-03-30T03:11:56.734Z,11.1
2019-03-30T03:12:22.897Z,11.19
2019-03-30T03:12:49.041Z,11.19
2019-03-30T03:13:15.226Z,11.19
2019-03-30T03:13:41.342Z,11.14
2019-03-30T03:14:07.478Z,11.14
2019-03-30T03:14:33.616Z,11.14
2019-03-30T03:14:59.723Z,11.17
2019-03-30T03:15:25.897Z,11.23
2019-03-30T03:15:52.169Z,11.17
2019-03-30T03:16:18.260Z,11.19
2019-03-30T03:16:45.444Z,11.23
2019-03-30T03:17:11.581Z,11.26
2019-03-30T03:17:37.687Z,11.3
2019-03-30T03:18:03.834Z,11.25
2019-03-30T03:18:29.937Z,11.32
2019-03-30T03:18:56.089Z,11.27
2019-03-30T03:19:22.362Z,11.32
2019-03-30T03:19:48.498Z,11.33
2019-03-30T03:20:14.611Z,11.43
2019-03-30T03:20:40.738Z,11.36
2019-03-30T03:21:09.118Z,11.43
2019-03-30T03:21:35.278Z,11.41
2019-03-30T03:22:01.404Z,11.37
2019-03-30T03:22:27.583Z,11.43
2019-03-30T03:22:53.724Z,11.35
2019-03-30T03:23:19.888Z,11.33
2019-03-30T03:23:45.993Z,11.33
2019-03-30T03:24:12.169Z,11.32
2019-03-30T03:24:38.312Z,11.32
2019-03-30T03:25:04.448Z,11.35
2019-03-30T03:25:30.615Z,11.15
2019-03-30T03:25:56.783Z,11.14
2019-03-30T03:26:22.890Z,11.15
2019-03-30T03:26:49.109Z,11.1
2019-03-30T03:27:15.254Z,11.05
2019-03-30T03:27:41.374Z,11.04
2019-03-30T03:28:07.467Z,11.1
2019-03-30T03:28:33.632Z,11.08
2019-03-30T03:28:59.734Z,11.05
2019-03-30T03:29:25.877Z,11
2019-03-30T03:29:52.976Z,10.99
2019-03-30T03:30:19.155Z,11.05
2019-03-30T03:30:45.321Z,11.02
2019-03-30T03:31:11.531Z,11.04
2019-03-30T03:31:38.043Z,10.9
2019-03-30T03:32:04.223Z,10.89
2019-03-30T03:32:30.419Z,10.9
2019-03-30T03:32:56.562Z,10.94
2019-03-30T03:33:22.756Z,10.92
2019-03-30T03:33:48.925Z,10.97
2019-03-30T03:34:15.063Z,10.9
2019-03-30T03:34:41.174Z,10.81
2019-03-30T03:35:07.354Z,10.86
2019-03-30T03:35:33.462Z,10.87
2019-03-30T03:35:59.608Z,10.82
2019-03-30T03:36:25.741Z,10.81
2019-03-30T03:36:51.869Z,10.74
2019-03-30T03:37:18.045Z,10.69
2019-03-30T03:37:47.138Z,10.74
2019-03-30T03:38:13.268Z,10.64
2019-03-30T03:38:39.402Z,10.75
2019-03-30T03:39:05.515Z,10.64
2019-03-30T03:39:31.652Z,10.74
2019-03-30T03:39:57.815Z,10.84
2019-03-30T03:40:24.016Z,10.81
2019-03-30T03:40:50.153Z,10.92
2019-03-30T03:41:16.271Z,10.89
2019-03-30T03:41:42.369Z,10.89
2019-03-30T03:42:08.477Z,10.81
2019-03-30T03:42:34.592Z,10.9
2019-03-30T03:43:00.720Z,10.87
2019-03-30T03:43:26.888Z,10.89
2019-03-30T03:43:53.058Z,10.9
2019-03-30T03:44:19.158Z,10.93
2019-03-30T03:44:45.300Z,10.96
2019-03-30T03:45:11.444Z,10.97
2019-03-30T03:45:37.579Z,10.93
2019-03-30T03:46:03.691Z,10.94
2019-03-30T03:46:29.856Z,10.94
2019-03-30T03:46:55.977Z,10.92
2019-03-30T03:47:22.078Z,10.9
2019-03-30T03:47:48.190Z,10.94
2019-03-30T03:48:14.351Z,10.78
2019-03-30T03:48:40.458Z,10.71
2019-03-30T03:49:06.595Z,10.72
2019-03-30T03:49:32.705Z,10.75
2019-03-30T03:49:58.849Z,10.87
2019-03-30T03:50:24.985Z,10.86
2019-03-30T03:50:51.126Z,10.89
2019-03-30T03:51:25.935Z,10.84
2019-03-30T03:51:45.364Z,10.96
2019-03-30T03:52:11.515Z,11.02
2019-03-30T03:52:37.639Z,10.92
2019-03-30T03:53:03.782Z,10.84
2019-03-30T03:53:29.917Z,10.84
2019-03-30T03:53:56.068Z,10.87
2019-03-30T03:54:22.315Z,10.79
2019-03-30T03:54:48.480Z,10.92
2019-03-30T03:55:14.592Z,10.92
2019-03-30T03:55:40.695Z,10.9
2019-03-30T03:56:06.882Z,10.93
2019-03-30T03:56:32.997Z,10.9
2019-03-30T03:56:59.188Z,10.87
2019-03-30T03:57:25.321Z,10.81
2019-03-30T03:57:51.493Z,10.86
2019-03-30T03:58:17.638Z,10.84
2019-03-30T03:58:43.794Z,10.71
2019-03-30T03:59:09.995Z,10.82
2019-03-30T03:59:36.134Z,10.82
2019-03-30T04:00:02.325Z,10.74
2019-03-30T04:00:28.451Z,10.49
2019-03-30T04:00:54.580Z,10.56
2019-03-30T04:01:20.773Z,10.67
2019-03-30T04:01:46.947Z,10.63
2019-03-30T04:02:13.098Z,10.61
2019-03-30T04:02:39.211Z,10.6
2019-03-30T04:03:05.344Z,10.69
2019-03-30T04:03:31.443Z,10.75
2019-03-30T04:03:57.576Z,10.76
2019-03-30T04:04:23.718Z,10.71
2019-03-30T04:04:50.843Z,10.69
2019-03-30T04:05:16.955Z,10.75
2019-03-30T04:05:43.093Z,10.68
2019-03-30T04:06:09.200Z,10.72
2019-03-30T04:06:35.309Z,10.69
2019-03-30T04:07:01.445Z,10.75
2019-03-30T04:07:27.583Z,10.79
2019-03-30T04:07:53.711Z,10.74
2019-03-30T04:08:19.883Z,10.64
2019-03-30T04:08:46.017Z,10.64
2019-03-30T04:09:12.153Z,10.67
2019-03-30T04:09:38.285Z,10.64
2019-03-30T04:10:04.425Z,10.69
2019-03-30T04:10:30.530Z,10.71
2019-03-30T04:10:56.639Z,10.68
2019-03-30T04:11:22.774Z,10.71
2019-03-30T04:11:48.886Z,10.72
2019-03-30T04:12:15.054Z,10.84
2019-03-30T04:12:41.190Z,10.67
2019-03-30T04:13:08.383Z,10.81
2019-03-30T04:13:34.517Z,10.69
2019-03-30T04:14:00.650Z,10.71
2019-03-30T04:14:26.785Z,10.75
2019-03-30T04:14:53.007Z,10.63
2019-03-30T04:15:19.193Z,10.69
2019-03-30T04:15:45.304Z,10.71
2019-03-30T04:16:11.409Z,10.68
2019-03-30T04:16:37.547Z,10.74
2019-03-30T04:17:03.685Z,10.71
2019-03-30T04:17:29.856Z,10.68
2019-03-30T04:17:55.957Z,10.69
2019-03-30T04:18:22.087Z,10.74
2019-03-30T04:18:49.252Z,10.74
2019-03-30T04:19:15.359Z,10.71
2019-03-30T04:19:41.470Z,10.72
2019-03-30T04:20:07.670Z,10.71
2019-03-30T04:20:33.778Z,10.63
2019-03-30T04:20:59.910Z,10.64
2019-03-30T04:21:42.734Z,10.68
2019-03-30T04:21:55.143Z,10.54
2019-03-30T04:22:21.276Z,10.57
2019-03-30T04:22:47.389Z,10.57
2019-03-30T04:23:13.524Z,10.54
2019-03-30T04:23:39.636Z,10.44
2019-03-30T04:24:06.734Z,10.6
2019-03-30T04:24:32.898Z,10.54
2019-03-30T04:24:59.007Z,10.49
2019-03-30T04:25:25.122Z,10.56
2019-03-30T04:25:51.258Z,10.63
2019-03-30T04:26:17.413Z,10.61
2019-03-30T04:26:43.547Z,10.71
2019-03-30T04:27:09.683Z,10.64
2019-03-30T04:27:35.828Z,10.68
2019-03-30T04:28:01.966Z,10.64
2019-03-30T04:28:28.068Z,10.59
2019-03-30T04:28:54.237Z,10.69
2019-03-30T04:29:20.404Z,10.69
2019-03-30T04:29:46.498Z,10.64
2019-03-30T04:30:12.639Z,10.64
2019-03-30T04:30:38.792Z,10.64
2019-03-30T04:31:04.906Z,10.63
2019-03-30T04:31:31.046Z,10.71
2019-03-30T04:31:57.175Z,10.74
2019-03-30T04:32:23.337Z,10.82
2019-03-30T04:32:49.422Z,10.82
2019-03-30T04:33:15.568Z,10.78
2019-03-30T04:33:41.723Z,10.79
2019-03-30T04:34:07.862Z,10.75
2019-03-30T04:34:34.022Z,10.84
2019-03-30T04:35:00.497Z,10.81
2019-03-30T04:35:26.581Z,10.84
2019-03-30T04:35:52.750Z,10.81
2019-03-30T04:36:18.911Z,10.84
2019-03-30T04:36:45.042Z,10.71
2019-03-30T04:37:11.217Z,10.75
2019-03-30T04:37:37.335Z,10.78
2019-03-30T04:38:03.515Z,10.75
2019-03-30T04:38:30.356Z,10.69
2019-03-30T04:38:56.488Z,10.71
2019-03-30T04:39:22.598Z,10.72
2019-03-30T04:39:48.735Z,10.72
2019-03-30T04:40:14.882Z,10.69
2019-03-30T04:40:41.019Z,10.71
2019-03-30T04:41:07.226Z,10.76
2019-03-30T04:41:33.416Z,10.72
2019-03-30T04:41:59.527Z,10.79
2019-03-30T04:42:25.658Z,10.79
2019-03-30T04:42:51.840Z,10.82
2019-03-30T04:43:17.895Z,10.74
2019-03-30T04:43:44.001Z,10.61
2019-03-30T04:44:10.111Z,10.57
2019-03-30T04:44:36.241Z,10.53
2019-03-30T04:45:02.351Z,10.48
2019-03-30T04:45:28.512Z,10.57
2019-03-30T04:45:54.645Z,10.64
2019-03-30T04:46:20.752Z,10.64
2019-03-30T04:46:46.893Z,10.67
2019-03-30T04:47:13.003Z,10.74
2019-03-30T04:47:39.171Z,10.69
2019-03-30T04:48:05.316Z,10.81
2019-03-30T04:48:31.473Z,10.86
2019-03-30T04:48:57.611Z,10.86
2019-03-30T04:49:23.748Z,10.93
2019-03-30T04:49:49.850Z,10.9
2019-03-30T04:50:16.247Z,10.78
2019-03-30T04:50:42.379Z,10.82
2019-03-30T04:51:08.529Z,10.87
2019-03-30T04:51:34.589Z,10.86
2019-03-30T04:52:03.408Z,10.81
2019-03-30T04:52:29.516Z,10.76
2019-03-30T04:52:55.627Z,10.74
2019-03-30T04:53:21.761Z,10.71
2019-03-30T04:53:47.908Z,10.69
2019-03-30T04:54:14.019Z,10.63
2019-03-30T04:54:40.126Z,10.6
2019-03-30T04:55:06.227Z,10.54
2019-03-30T04:55:32.338Z,10.56
2019-03-30T04:55:58.451Z,10.68
2019-03-30T04:56:24.550Z,10.67
2019-03-30T04:56:50.660Z,10.69
2019-03-30T04:57:16.769Z,10.64
2019-03-30T04:57:42.890Z,10.67
2019-03-30T04:58:10.990Z,10.63
2019-03-30T04:58:37.095Z,10.67
2019-03-30T04:59:03.232Z,10.69
2019-03-30T04:59:29.365Z,10.56
2019-03-30T04:59:55.477Z,10.57
2019-03-30T05:00:21.616Z,10.6
2019-03-30T05:00:47.784Z,10.54
2019-03-30T05:01:13.922Z,10.51
2019-03-30T05:01:40.061Z,10.6
2019-03-30T05:02:06.201Z,10.56
2019-03-30T05:02:32.309Z,10.57
2019-03-30T05:02:58.416Z,10.67
2019-03-30T05:03:24.520Z,10.63
2019-03-30T05:03:50.713Z,10.71
2019-03-30T05:04:16.773Z,10.67
2019-03-30T05:04:42.920Z,10.72
2019-03-30T05:05:09.047Z,10.67
2019-03-30T05:05:35.179Z,10.72
2019-03-30T05:06:01.344Z,10.71
2019-03-30T05:06:27.438Z,10.41
2019-03-30T05:06:53.550Z,10.56
2019-03-30T05:07:19.666Z,10.42
2019-03-30T05:07:45.796Z,10.59
2019-03-30T05:08:11.908Z,10.59
2019-03-30T05:08:38.037Z,10.61
2019-03-30T05:09:04.179Z,10.57
2019-03-30T05:09:30.317Z,10.56
2019-03-30T05:09:56.418Z,10.6
2019-03-30T05:10:22.524Z,10.64
2019-03-30T05:10:48.667Z,10.6
2019-03-30T05:11:14.770Z,10.56
2019-03-30T05:11:40.911Z,10.6
2019-03-30T05:12:07.018Z,10.46
2019-03-30T05:12:33.145Z,10.59
2019-03-30T05:12:59.256Z,10.53
2019-03-30T05:13:25.366Z,10.49
2019-03-30T05:13:51.474Z,10.4
2019-03-30T05:14:17.608Z,10.46
2019-03-30T05:14:43.716Z,10.42
2019-03-30T05:15:09.821Z,10.41
2019-03-30T05:15:35.936Z,10.4
2019-03-30T05:16:02.040Z,10.3
2019-03-30T05:16:28.199Z,10.4
2019-03-30T05:16:54.254Z,10.37
2019-03-30T05:17:20.358Z,10.4
2019-03-30T05:17:48.470Z,10.25
2019-03-30T05:18:14.608Z,10.28
2019-03-30T05:18:40.723Z,10.19
2019-03-30T05:19:06.854Z,10.15
2019-03-30T05:19:32.965Z,10.02
2019-03-30T05:19:59.096Z,10.01
2019-03-30T05:20:25.198Z,10.15
2019-03-30T05:20:51.349Z,10.16
2019-03-30T05:21:17.457Z,10.15
2019-03-30T05:21:43.562Z,10.13
2019-03-30T05:22:14.855Z,10.01
2019-03-30T05:22:37.843Z,10.13
2019-03-30T05:23:04.949Z,10.07
2019-03-30T05:23:31.054Z,10.07
2019-03-30T05:23:57.192Z,10.22
2019-03-30T05:24:23.305Z,10.17
2019-03-30T05:24:49.441Z,10.22
2019-03-30T05:25:15.543Z,10.16
2019-03-30T05:25:41.682Z,10.22
2019-03-30T05:26:07.815Z,10.19
2019-03-30T05:26:33.917Z,10.19
2019-03-30T05:27:00.033Z,10.22
2019-03-30T05:27:26.144Z,10.17
2019-03-30T05:27:52.242Z,10.13
2019-03-30T05:28:18.389Z,10.13
2019-03-30T05:28:44.497Z,10.09
2019-03-30T05:29:10.598Z,10.16
2019-03-30T05:29:36.705Z,10.17
2019-03-30T05:30:02.820Z,10.2
2019-03-30T05:30:28.985Z,10.23
2019-03-30T05:30:55.125Z,10.17
2019-03-30T05:31:21.264Z,10.2
2019-03-30T05:31:47.338Z,10.23
2019-03-30T05:32:13.481Z,10.28
2019-03-30T05:32:41.597Z,10.33
2019-03-30T05:33:07.717Z,10.17
2019-03-30T05:33:33.854Z,10.15
2019-03-30T05:33:59.988Z,10.16
2019-03-30T05:34:26.099Z,10.17
2019-03-30T05:34:52.209Z,10.2
2019-03-30T05:35:18.315Z,10.33
2019-03-30T05:35:44.422Z,10.25
2019-03-30T05:36:10.538Z,10.25
2019-03-30T05:36:36.638Z,10.28
2019-03-30T05:37:02.751Z,10.19
2019-03-30T05:37:28.850Z,10.26
2019-03-30T05:37:54.990Z,10.34
2019-03-30T05:38:22.084Z,10.25
2019-03-30T05:38:48.238Z,10.26
2019-03-30T05:39:14.295Z,10.26